KMSL

Northwest Alabama Regional Airport

Muscle Shoals, Alabama, USA
METAR KMSL 201553Z AUTO 18009KT 10SM BKN012 OVC021 27/23 A3002 RMK AO2 SLP159 T02670233
Observed Flight Rules
Aug-20 @ 15:53 UTC (31 minutes ago) Marginal Visual Flight Rules
Wind Visibility Clouds
180° at 9 knots 10 miles
  • Broken at 1,200' AGL
  • Overcast at 2,100' AGL
Temperatures Readings
Current 27°C / 81°F
Dewpoint 23°C / 73°F
Humidity 79%
Altimeter 30.02" Hg
Pressure 1015.9 hPa
Elevation 164
METAR KMSL 201553Z AUTO 18009KT 10SM BKN012 OVC021 27/23 A3002 RMK AO2 SLP159 T02670233
Observed Flight Rules
Aug-20 @ 15:53 UTC
(31 minutes ago)
MVFR
Wind Visibility
180° at 9 knots 10 miles
Clouds
  • Broken at 1,200' AGL
  • Overcast at 2,100' AGL
Temperature Dewpoint
27°C / 81°F 23°C / 73°F
Humidity Altimeter Pressure
79% 30.02" Hg 1015.9 hPa